N960 KPIT-KCLE
Flight info
| Callsign | N960 |
|---|---|
| Flight time | 0h 33m |
| Altitude | 24000 |
| Route | BSV ROLLN ROLLN2 |
| Aircraft | C25C/M-BGS/L |
Departure
| Time | 2026-05-05 01:26 |
|---|---|
| Airport | Pittsburgh International Airport (KPIT) |
Arrival
| Time | 2026-05-05 01:59 |
|---|---|
| Airport | Cleveland Hopkins International Airport (KCLE) |
| Time | Latitude | Longitude | Altitude | Speed | Heading |
|---|---|---|---|---|---|
| 2026-05-05 01:23 | 40.49843 | -80.22761 | 1155 ft | 9 kts | 304° |
| 2026-05-05 01:23 | 40.49877 | -80.22836 | 1160 ft | 11 kts | 301° |
| 2026-05-05 01:23 | 40.49913 | -80.22917 | 1166 ft | 9 kts | 300° |
| 2026-05-05 01:24 | 40.49941 | -80.22983 | 1169 ft | 9 kts | 298° |
| 2026-05-05 01:24 | 40.49957 | -80.23086 | 1171 ft | 17 kts | 275° |
| 2026-05-05 01:24 | 40.49965 | -80.23277 | 1174 ft | 22 kts | 273° |
| 2026-05-05 01:24 | 40.50024 | -80.23363 | 1174 ft | 12 kts | 356° |
| 2026-05-05 01:25 | 40.50104 | -80.23374 | 1173 ft | 10 kts | 315° |
| 2026-05-05 01:25 | 40.50130 | -80.23448 | 1173 ft | 11 kts | 285° |
| 2026-05-05 01:25 | 40.50152 | -80.24008 | 1184 ft | 115 kts | 272° |
| 2026-05-05 01:25 | 40.50181 | -80.25369 | 1509 ft | 170 kts | 269° |
| 2026-05-05 01:26 | 40.50245 | -80.26998 | 2178 ft | 185 kts | 266° |
| 2026-05-05 01:26 | 40.50398 | -80.28663 | 3147 ft | 175 kts | 269° |
| 2026-05-05 01:26 | 40.50673 | -80.30153 | 4252 ft | 169 kts | 280° |
| 2026-05-05 01:26 | 40.51182 | -80.31618 | 4956 ft | 176 kts | 282° |
| 2026-05-05 01:27 | 40.51591 | -80.33204 | 5556 ft | 195 kts | 279° |
| 2026-05-05 01:27 | 40.51970 | -80.35067 | 5982 ft | 225 kts | 279° |
| 2026-05-05 01:27 | 40.52316 | -80.37027 | 6968 ft | 210 kts | 277° |
| 2026-05-05 01:27 | 40.52582 | -80.38832 | 8098 ft | 195 kts | 280° |
| 2026-05-05 01:28 | 40.52933 | -80.40595 | 8735 ft | 215 kts | 282° |
| 2026-05-05 01:28 | 40.53358 | -80.42635 | 9206 ft | 243 kts | 281° |
| 2026-05-05 01:28 | 40.53728 | -80.44858 | 9876 ft | 256 kts | 279° |
| 2026-05-05 01:28 | 40.54107 | -80.47193 | 10524 ft | 264 kts | 280° |
| 2026-05-05 01:29 | 40.54550 | -80.49462 | 11367 ft | 245 kts | 283° |
| 2026-05-05 01:29 | 40.55066 | -80.51462 | 11895 ft | 222 kts | 288° |
| 2026-05-05 01:29 | 40.55596 | -80.53276 | 12514 ft | 206 kts | 283° |
| 2026-05-05 01:29 | 40.55926 | -80.55097 | 13143 ft | 204 kts | 281° |
| 2026-05-05 01:30 | 40.56278 | -80.56927 | 13774 ft | 209 kts | 283° |
| 2026-05-05 01:30 | 40.56668 | -80.58784 | 14360 ft | 212 kts | 283° |
| 2026-05-05 01:30 | 40.57066 | -80.60664 | 14960 ft | 215 kts | 283° |
| 2026-05-05 01:30 | 40.57469 | -80.62573 | 15566 ft | 220 kts | 283° |
| 2026-05-05 01:31 | 40.57881 | -80.64539 | 16189 ft | 225 kts | 283° |
| 2026-05-05 01:31 | 40.58312 | -80.66616 | 16835 ft | 249 kts | 283° |
| 2026-05-05 01:31 | 40.58789 | -80.68890 | 17514 ft | 265 kts | 284° |
| 2026-05-05 01:31 | 40.59289 | -80.71281 | 18188 ft | 278 kts | 284° |
| 2026-05-05 01:32 | 40.59816 | -80.73795 | 18788 ft | 291 kts | 283° |
| 2026-05-05 01:32 | 40.60362 | -80.76413 | 19398 ft | 303 kts | 284° |
| 2026-05-05 01:32 | 40.60924 | -80.79117 | 20137 ft | 310 kts | 284° |
| 2026-05-05 01:32 | 40.61502 | -80.81876 | 20904 ft | 316 kts | 284° |
| 2026-05-05 01:33 | 40.62084 | -80.84692 | 21684 ft | 320 kts | 284° |
| 2026-05-05 01:33 | 40.62667 | -80.87491 | 22475 ft | 314 kts | 284° |
| 2026-05-05 01:33 | 40.63234 | -80.90234 | 23284 ft | 307 kts | 284° |
| 2026-05-05 01:33 | 40.63788 | -80.92899 | 23769 ft | 309 kts | 284° |
| 2026-05-05 01:34 | 40.64365 | -80.95705 | 23794 ft | 326 kts | 284° |
| 2026-05-05 01:34 | 40.64974 | -80.98657 | 23798 ft | 341 kts | 284° |
| 2026-05-05 01:34 | 40.65610 | -81.01727 | 23803 ft | 354 kts | 284° |
| 2026-05-05 01:34 | 40.66261 | -81.04905 | 23805 ft | 365 kts | 284° |
| 2026-05-05 01:35 | 40.66934 | -81.08165 | 23799 ft | 366 kts | 284° |
| 2026-05-05 01:35 | 40.67586 | -81.11337 | 23801 ft | 352 kts | 284° |
| 2026-05-05 01:35 | 40.68213 | -81.14389 | 23796 ft | 340 kts | 284° |
| 2026-05-05 01:35 | 40.68821 | -81.17367 | 23792 ft | 334 kts | 284° |
| 2026-05-05 01:36 | 40.69424 | -81.20315 | 23789 ft | 332 kts | 284° |
| 2026-05-05 01:36 | 40.70024 | -81.23250 | 23787 ft | 331 kts | 284° |
| 2026-05-05 01:36 | 40.70618 | -81.26178 | 23779 ft | 330 kts | 284° |
| 2026-05-05 01:36 | 40.71213 | -81.29094 | 23778 ft | 329 kts | 284° |
| 2026-05-05 01:37 | 40.71804 | -81.32003 | 23781 ft | 328 kts | 284° |
| 2026-05-05 01:37 | 40.72391 | -81.34904 | 23781 ft | 327 kts | 284° |
| 2026-05-05 01:37 | 40.72981 | -81.37797 | 23779 ft | 327 kts | 284° |
| 2026-05-05 01:37 | 40.73586 | -81.40681 | 23780 ft | 326 kts | 284° |
| 2026-05-05 01:38 | 40.74194 | -81.43563 | 23781 ft | 326 kts | 284° |
| 2026-05-05 01:38 | 40.74815 | -81.46431 | 23780 ft | 325 kts | 287° |
| 2026-05-05 01:38 | 40.75943 | -81.48969 | 23779 ft | 328 kts | 306° |
| 2026-05-05 01:38 | 40.77422 | -81.51316 | 23781 ft | 328 kts | 308° |
| 2026-05-05 01:39 | 40.78830 | -81.53646 | 23786 ft | 316 kts | 304° |
| 2026-05-05 01:39 | 40.79927 | -81.55959 | 23625 ft | 291 kts | 297° |
| 2026-05-05 01:39 | 40.80863 | -81.58275 | 23111 ft | 282 kts | 296° |
| 2026-05-05 01:39 | 40.81818 | -81.60494 | 22556 ft | 275 kts | 298° |
| 2026-05-05 01:40 | 40.82795 | -81.62630 | 22017 ft | 269 kts | 298° |
| 2026-05-05 01:40 | 40.83749 | -81.64725 | 21486 ft | 263 kts | 298° |
| 2026-05-05 01:40 | 40.84674 | -81.66794 | 20969 ft | 259 kts | 298° |
| 2026-05-05 01:40 | 40.85579 | -81.68821 | 20457 ft | 254 kts | 298° |
| 2026-05-05 01:41 | 40.86472 | -81.70826 | 19869 ft | 254 kts | 298° |
| 2026-05-05 01:41 | 40.87509 | -81.72715 | 19262 ft | 258 kts | 313° |
| 2026-05-05 01:41 | 40.89028 | -81.74007 | 18668 ft | 265 kts | 333° |
| 2026-05-05 01:41 | 40.90866 | -81.74473 | 18082 ft | 274 kts | 354° |
| 2026-05-05 01:42 | 40.92773 | -81.74406 | 17425 ft | 274 kts | 356° |
| 2026-05-05 01:42 | 40.94675 | -81.74296 | 16776 ft | 273 kts | 356° |
| 2026-05-05 01:42 | 40.96565 | -81.74210 | 16131 ft | 271 kts | 355° |
| 2026-05-05 01:42 | 40.98447 | -81.74135 | 15516 ft | 270 kts | 354° |
| 2026-05-05 01:43 | 41.00319 | -81.74064 | 14905 ft | 269 kts | 355° |
| 2026-05-05 01:43 | 41.02183 | -81.73987 | 14305 ft | 268 kts | 354° |
| 2026-05-05 01:43 | 41.04024 | -81.73903 | 13968 ft | 257 kts | 354° |
| 2026-05-05 01:43 | 41.05748 | -81.73830 | 13645 ft | 248 kts | 354° |
| 2026-05-05 01:44 | 41.07452 | -81.73762 | 13266 ft | 242 kts | 353° |
| 2026-05-05 01:44 | 41.09098 | -81.73693 | 12993 ft | 232 kts | 353° |
| 2026-05-05 01:44 | 41.10684 | -81.73629 | 12718 ft | 225 kts | 352° |
| 2026-05-05 01:44 | 41.12230 | -81.73583 | 12447 ft | 218 kts | 351° |
| 2026-05-05 01:45 | 41.13738 | -81.73549 | 12178 ft | 215 kts | 351° |
| 2026-05-05 01:45 | 41.15231 | -81.73491 | 11910 ft | 214 kts | 352° |
| 2026-05-05 01:45 | 41.16717 | -81.73417 | 11649 ft | 213 kts | 351° |
| 2026-05-05 01:45 | 41.18200 | -81.73350 | 11394 ft | 214 kts | 351° |
| 2026-05-05 01:46 | 41.19702 | -81.73284 | 11056 ft | 219 kts | 351° |
| 2026-05-05 01:46 | 41.21245 | -81.73217 | 10691 ft | 225 kts | 351° |
| 2026-05-05 01:46 | 41.22818 | -81.73156 | 10330 ft | 229 kts | 351° |
| 2026-05-05 01:46 | 41.24436 | -81.73091 | 9977 ft | 235 kts | 351° |
| 2026-05-05 01:47 | 41.26089 | -81.73021 | 9633 ft | 240 kts | 352° |
| 2026-05-05 01:47 | 41.27767 | -81.72954 | 9256 ft | 244 kts | 352° |
| 2026-05-05 01:47 | 41.29474 | -81.72880 | 8878 ft | 247 kts | 352° |
| 2026-05-05 01:47 | 41.31201 | -81.72810 | 8488 ft | 249 kts | 352° |
| 2026-05-05 01:48 | 41.32936 | -81.72740 | 8123 ft | 250 kts | 352° |
| 2026-05-05 01:48 | 41.34676 | -81.72665 | 7756 ft | 250 kts | 352° |
| 2026-05-05 01:48 | 41.36426 | -81.72500 | 7387 ft | 260 kts | 4° |
| 2026-05-05 01:48 | 41.38065 | -81.71322 | 7038 ft | 277 kts | 35° |
| 2026-05-05 01:49 | 41.39390 | -81.69492 | 6914 ft | 270 kts | 43° |
| 2026-05-05 01:49 | 41.40594 | -81.67624 | 6744 ft | 264 kts | 47° |
| 2026-05-05 01:49 | 41.41733 | -81.65745 | 6609 ft | 258 kts | 47° |
| 2026-05-05 01:49 | 41.42699 | -81.63798 | 6602 ft | 250 kts | 57° |
| 2026-05-05 01:50 | 41.43468 | -81.61719 | 6462 ft | 249 kts | 63° |
| 2026-05-05 01:50 | 41.44214 | -81.59600 | 6109 ft | 258 kts | 63° |
| 2026-05-05 01:50 | 41.45059 | -81.57495 | 5907 ft | 255 kts | 52° |
| 2026-05-05 01:50 | 41.46343 | -81.55888 | 5652 ft | 246 kts | 21° |
| 2026-05-05 01:51 | 41.47869 | -81.55259 | 5562 ft | 223 kts | 353° |
| 2026-05-05 01:51 | 41.49316 | -81.55425 | 5370 ft | 201 kts | 341° |
| 2026-05-05 01:51 | 41.50687 | -81.55712 | 5099 ft | 194 kts | 337° |
| 2026-05-05 01:51 | 41.51884 | -81.56301 | 4860 ft | 169 kts | 308° |
| 2026-05-05 01:52 | 41.52400 | -81.57534 | 4596 ft | 147 kts | 274° |
| 2026-05-05 01:52 | 41.52552 | -81.58824 | 4476 ft | 135 kts | 270° |
| 2026-05-05 01:52 | 41.52682 | -81.60059 | 4198 ft | 138 kts | 270° |
| 2026-05-05 01:52 | 41.52646 | -81.61295 | 4047 ft | 127 kts | 247° |
| 2026-05-05 01:53 | 41.52368 | -81.62382 | 3943 ft | 122 kts | 251° |
| 2026-05-05 01:53 | 41.52154 | -81.63492 | 3777 ft | 123 kts | 251° |
| 2026-05-05 01:53 | 41.51924 | -81.64588 | 3671 ft | 120 kts | 250° |
| 2026-05-05 01:53 | 41.51714 | -81.65617 | 3691 ft | 111 kts | 250° |
| 2026-05-05 01:54 | 41.51491 | -81.66628 | 3590 ft | 120 kts | 249° |
| 2026-05-05 01:54 | 41.51222 | -81.67738 | 3542 ft | 130 kts | 248° |
| 2026-05-05 01:54 | 41.50884 | -81.68911 | 3443 ft | 139 kts | 247° |
| 2026-05-05 01:54 | 41.50538 | -81.70131 | 3413 ft | 140 kts | 244° |
| 2026-05-05 01:55 | 41.50047 | -81.71277 | 3269 ft | 146 kts | 239° |
| 2026-05-05 01:55 | 41.49448 | -81.72402 | 3088 ft | 150 kts | 233° |
| 2026-05-05 01:55 | 41.48778 | -81.73457 | 2988 ft | 148 kts | 231° |
| 2026-05-05 01:55 | 41.48106 | -81.74496 | 2867 ft | 149 kts | 231° |
| 2026-05-05 01:56 | 41.47449 | -81.75577 | 2633 ft | 146 kts | 232° |
| 2026-05-05 01:56 | 41.46832 | -81.76592 | 2374 ft | 135 kts | 231° |
| 2026-05-05 01:56 | 41.46260 | -81.77491 | 2254 ft | 122 kts | 231° |
| 2026-05-05 01:56 | 41.45722 | -81.78366 | 2048 ft | 122 kts | 233° |
| 2026-05-05 01:57 | 41.45166 | -81.79236 | 1837 ft | 124 kts | 229° |
| 2026-05-05 01:57 | 41.44618 | -81.80100 | 1699 ft | 115 kts | 229° |
| 2026-05-05 01:57 | 41.44122 | -81.80894 | 1400 ft | 110 kts | 228° |
| 2026-05-05 01:57 | 41.43652 | -81.81638 | 1265 ft | 101 kts | 226° |
| 2026-05-05 01:58 | 41.43171 | -81.82338 | 1160 ft | 104 kts | 232° |
| 2026-05-05 01:58 | 41.42704 | -81.83100 | 1061 ft | 108 kts | 227° |
| 2026-05-05 01:58 | 41.42195 | -81.83863 | 923 ft | 113 kts | 227° |
| 2026-05-05 01:58 | 41.41863 | -81.84389 | 854 ft | 109 kts | 229° |
| 2026-05-05 01:59 | 41.41403 | -81.85112 | 784 ft | 94 kts | 230° |
| 2026-05-05 01:59 | 41.41073 | -81.85631 | 777 ft | 57 kts | 229° |
| 2026-05-05 01:59 | 41.40866 | -81.85895 | 778 ft | 17 kts | 161° |
| 2026-05-05 01:59 | 41.40810 | -81.85827 | 778 ft | 0 kts | 130° |
| 2026-05-05 02:00 | 41.40809 | -81.85826 | 778 ft | 4 kts | 135° |
| 2026-05-05 02:00 | 41.40726 | -81.85936 | 779 ft | 26 kts | 233° |
| 2026-05-05 02:00 | 41.40617 | -81.86109 | 778 ft | 24 kts | 227° |
| 2026-05-05 02:00 | 41.40511 | -81.86130 | 775 ft | 17 kts | 96° |
| 2026-05-05 02:01 | 41.40475 | -81.86110 | 773 ft | 6 kts | 189° |
| 2026-05-05 02:01 | 41.40454 | -81.86113 | 772 ft | 0 kts | 147° |
| 2026-05-05 02:01 | 41.40427 | -81.86089 | 772 ft | 11 kts | 146° |
| 2026-05-05 02:02 | 41.40342 | -81.86002 | 773 ft | 17 kts | 140° |
| 2026-05-05 02:02 | 41.40330 | -81.85881 | 775 ft | 16 kts | 52° |
| 2026-05-05 02:02 | 41.40401 | -81.85767 | 777 ft | 16 kts | 50° |
| 2026-05-05 02:02 | 41.40475 | -81.85650 | 778 ft | 17 kts | 50° |
| 2026-05-05 02:03 | 41.40553 | -81.85526 | 777 ft | 16 kts | 59° |
| 2026-05-05 02:03 | 41.40521 | -81.85506 | 777 ft | 13 kts | 171° |
| 2026-05-05 02:03 | 41.40412 | -81.85463 | 780 ft | 16 kts | 162° |
| 2026-05-05 02:03 | 41.40320 | -81.85418 | 784 ft | 12 kts | 140° |